sensor_id;sensor_type;location;lat;lon;timestamp;P1;durP1;ratioP1;P2;durP2;ratioP2
49582;SDS011;36329;48.816;44.624;2023-11-21T00:01:32;9.5;;;6.4;;
49582;SDS011;36329;48.816;44.624;2023-11-21T00:04:34;6.9;;;4.7;;
49582;SDS011;36329;48.816;44.624;2023-11-21T00:07:36;6.5;;;4.5;;
49582;SDS011;36329;48.816;44.624;2023-11-21T00:10:38;8.3;;;5.2;;
49582;SDS011;36329;48.816;44.624;2023-11-21T00:13:40;8.4;;;5.1;;
49582;SDS011;36329;48.816;44.624;2023-11-21T00:16:42;7.9;;;5.3;;
49582;SDS011;36329;48.816;44.624;2023-11-21T00:19:44;9.3;;;5.8;;
49582;SDS011;36329;48.816;44.624;2023-11-21T00:22:46;8.3;;;5.4;;
49582;SDS011;36329;48.816;44.624;2023-11-21T00:25:49;8.8;;;5.4;;
49582;SDS011;36329;48.816;44.624;2023-11-21T00:28:51;7.9;;;5;;
49582;SDS011;36329;48.816;44.624;2023-11-21T00:31:54;7.9;;;5.1;;
49582;SDS011;36329;48.816;44.624;2023-11-21T00:34:56;7.8;;;5.1;;
49582;SDS011;36329;48.816;44.624;2023-11-21T00:37:58;7.6;;;5;;
49582;SDS011;36329;48.816;44.624;2023-11-21T00:41:00;7.9;;;4.9;;
49582;SDS011;36329;48.816;44.624;2023-11-21T00:44:01;8.3;;;5.3;;
49582;SDS011;36329;48.816;44.624;2023-11-21T00:47:03;8.5;;;5.1;;
49582;SDS011;36329;48.816;44.624;2023-11-21T00:50:06;7.5;;;5;;
49582;SDS011;36329;48.816;44.624;2023-11-21T00:53:08;7.6;;;4.7;;
49582;SDS011;36329;48.816;44.624;2023-11-21T00:56:10;7.5;;;4.8;;
49582;SDS011;36329;48.816;44.624;2023-11-21T00:59:12;7.2;;;4.7;;
49582;SDS011;36329;48.816;44.624;2023-11-21T01:02:14;6.2;;;4;;
49582;SDS011;36329;48.816;44.624;2023-11-21T01:05:17;6.9;;;4.2;;
49582;SDS011;36329;48.816;44.624;2023-11-21T01:08:19;7.6;;;5.1;;
49582;SDS011;36329;48.816;44.624;2023-11-21T01:11:22;8.2;;;4.9;;
49582;SDS011;36329;48.816;44.624;2023-11-21T01:14:23;8.3;;;5.1;;
49582;SDS011;36329;48.816;44.624;2023-11-21T01:17:25;9.3;;;5.7;;
49582;SDS011;36329;48.816;44.624;2023-11-21T01:20:27;10.6;;;6.2;;
49582;SDS011;36329;48.816;44.624;2023-11-21T01:23:29;9.5;;;6;;
49582;SDS011;36329;48.816;44.624;2023-11-21T01:26:31;14;;;7.9;;
49582;SDS011;36329;48.816;44.624;2023-11-21T01:29:33;16.9;;;8.7;;
49582;SDS011;36329;48.816;44.624;2023-11-21T01:32:35;16.9;;;8.6;;
49582;SDS011;36329;48.816;44.624;2023-11-21T01:35:37;14.7;;;7.7;;
49582;SDS011;36329;48.816;44.624;2023-11-21T01:38:39;17.8;;;8.9;;
49582;SDS011;36329;48.816;44.624;2023-11-21T01:41:41;13.5;;;7.1;;
49582;SDS011;36329;48.816;44.624;2023-11-21T01:44:43;11.9;;;6.4;;
49582;SDS011;36329;48.816;44.624;2023-11-21T01:47:45;9.2;;;5.2;;
49582;SDS011;36329;48.816;44.624;2023-11-21T01:50:47;8.7;;;4.3;;
49582;SDS011;36329;48.816;44.624;2023-11-21T01:53:49;7.3;;;4.2;;
49582;SDS011;36329;48.816;44.624;2023-11-21T01:56:52;6.6;;;4;;
49582;SDS011;36329;48.816;44.624;2023-11-21T01:59:54;7.7;;;4.1;;
49582;SDS011;36329;48.816;44.624;2023-11-21T02:02:57;6;;;3.9;;
49582;SDS011;36329;48.816;44.624;2023-11-21T02:05:59;6.3;;;4.1;;
49582;SDS011;36329;48.816;44.624;2023-11-21T02:09:01;7.5;;;4.2;;
49582;SDS011;36329;48.816;44.624;2023-11-21T02:12:04;7;;;4.2;;
49582;SDS011;36329;48.816;44.624;2023-11-21T02:15:06;8.6;;;4.9;;
49582;SDS011;36329;48.816;44.624;2023-11-21T02:18:09;7.7;;;4.3;;
49582;SDS011;36329;48.816;44.624;2023-11-21T02:21:11;9.7;;;4.2;;
49582;SDS011;36329;48.816;44.624;2023-11-21T02:24:13;6.5;;;3.4;;
49582;SDS011;36329;48.816;44.624;2023-11-21T02:27:15;5.6;;;3.1;;
49582;SDS011;36329;48.816;44.624;2023-11-21T02:30:16;5.9;;;2.9;;
49582;SDS011;36329;48.816;44.624;2023-11-21T02:33:19;4.4;;;2.4;;
49582;SDS011;36329;48.816;44.624;2023-11-21T02:36:20;4.4;;;2.5;;
49582;SDS011;36329;48.816;44.624;2023-11-21T02:39:22;5.2;;;2.6;;
49582;SDS011;36329;48.816;44.624;2023-11-21T02:42:24;6.3;;;2.6;;
49582;SDS011;36329;48.816;44.624;2023-11-21T02:45:26;5.2;;;2.4;;
49582;SDS011;36329;48.816;44.624;2023-11-21T02:48:28;4.5;;;2.4;;
49582;SDS011;36329;48.816;44.624;2023-11-21T02:51:30;5.7;;;2.6;;
49582;SDS011;36329;48.816;44.624;2023-11-21T02:54:33;5.3;;;2.6;;
49582;SDS011;36329;48.816;44.624;2023-11-21T02:57:35;3.8;;;2.2;;
49582;SDS011;36329;48.816;44.624;2023-11-21T03:00:37;4.2;;;2.6;;
49582;SDS011;36329;48.816;44.624;2023-11-21T03:03:39;4.2;;;2.4;;
49582;SDS011;36329;48.816;44.624;2023-11-21T03:06:41;3.9;;;2.3;;
49582;SDS011;36329;48.816;44.624;2023-11-21T03:09:43;3.8;;;2.2;;
49582;SDS011;36329;48.816;44.624;2023-11-21T03:12:44;3.7;;;2.1;;
49582;SDS011;36329;48.816;44.624;2023-11-21T03:15:46;3.9;;;2.2;;
49582;SDS011;36329;48.816;44.624;2023-11-21T03:18:48;3.9;;;2.3;;
49582;SDS011;36329;48.816;44.624;2023-11-21T03:21:50;4.2;;;2.2;;
49582;SDS011;36329;48.816;44.624;2023-11-21T03:24:52;4.2;;;2.2;;
49582;SDS011;36329;48.816;44.624;2023-11-21T03:27:54;3.2;;;2.3;;
49582;SDS011;36329;48.816;44.624;2023-11-21T03:30:56;4.2;;;2.2;;
49582;SDS011;36329;48.816;44.624;2023-11-21T03:33:58;4.5;;;2.3;;
49582;SDS011;36329;48.816;44.624;2023-11-21T03:37:00;3;;;1.9;;
49582;SDS011;36329;48.816;44.624;2023-11-21T03:40:02;2.8;;;1.8;;
49582;SDS011;36329;48.816;44.624;2023-11-21T03:43:06;3.3;;;1.8;;
49582;SDS011;36329;48.816;44.624;2023-11-21T03:46:08;2.6;;;1.6;;
49582;SDS011;36329;48.816;44.624;2023-11-21T03:49:10;2.3;;;1.7;;
49582;SDS011;36329;48.816;44.624;2023-11-21T03:52:12;1.4;;;1.2;;
49582;SDS011;36329;48.816;44.624;2023-11-21T03:55:14;2;;;1.1;;
49582;SDS011;36329;48.816;44.624;2023-11-21T03:58:16;2.2;;;1.2;;
49582;SDS011;36329;48.816;44.624;2023-11-21T04:01:20;1.8;;;1.1;;
49582;SDS011;36329;48.816;44.624;2023-11-21T04:04:22;1.8;;;1.2;;
49582;SDS011;36329;48.816;44.624;2023-11-21T04:07:23;1;;;0.9;;
49582;SDS011;36329;48.816;44.624;2023-11-21T04:10:25;1.8;;;1;;
49582;SDS011;36329;48.816;44.624;2023-11-21T04:13:27;1.3;;;1;;
49582;SDS011;36329;48.816;44.624;2023-11-21T04:16:29;1.4;;;0.9;;
49582;SDS011;36329;48.816;44.624;2023-11-21T04:19:31;1.3;;;1.1;;
49582;SDS011;36329;48.816;44.624;2023-11-21T04:22:33;1.7;;;1.2;;
49582;SDS011;36329;48.816;44.624;2023-11-21T04:25:35;2.2;;;1.4;;
49582;SDS011;36329;48.816;44.624;2023-11-21T04:28:37;1.9;;;1.3;;
49582;SDS011;36329;48.816;44.624;2023-11-21T04:31:39;2.4;;;1.6;;
49582;SDS011;36329;48.816;44.624;2023-11-21T04:34:41;3.6;;;1.6;;
49582;SDS011;36329;48.816;44.624;2023-11-21T04:37:43;2.6;;;1.7;;
49582;SDS011;36329;48.816;44.624;2023-11-21T04:40:45;2.8;;;1.5;;
49582;SDS011;36329;48.816;44.624;2023-11-21T04:43:47;1.8;;;1.4;;
49582;SDS011;36329;48.816;44.624;2023-11-21T04:46:49;2;;;1.5;;
49582;SDS011;36329;48.816;44.624;2023-11-21T04:49:51;2.2;;;1.5;;
49582;SDS011;36329;48.816;44.624;2023-11-21T04:52:53;1.9;;;1.4;;
49582;SDS011;36329;48.816;44.624;2023-11-21T04:55:56;2.1;;;1.2;;
49582;SDS011;36329;48.816;44.624;2023-11-21T04:58:58;1.7;;;1.1;;
49582;SDS011;36329;48.816;44.624;2023-11-21T05:02:00;1.6;;;0.9;;
49582;SDS011;36329;48.816;44.624;2023-11-21T05:05:02;1.4;;;1;;
49582;SDS011;36329;48.816;44.624;2023-11-21T05:08:05;2.1;;;1;;
49582;SDS011;36329;48.816;44.624;2023-11-21T05:11:07;1.1;;;0.8;;
49582;SDS011;36329;48.816;44.624;2023-11-21T05:14:09;1.6;;;0.9;;
49582;SDS011;36329;48.816;44.624;2023-11-21T05:17:11;1.2;;;1;;
49582;SDS011;36329;48.816;44.624;2023-11-21T05:20:14;1;;;0.8;;
49582;SDS011;36329;48.816;44.624;2023-11-21T05:23:16;1.3;;;1;;
49582;SDS011;36329;48.816;44.624;2023-11-21T05:26:19;1.1;;;0.8;;
49582;SDS011;36329;48.816;44.624;2023-11-21T05:29:21;1.3;;;1;;
49582;SDS011;36329;48.816;44.624;2023-11-21T05:32:23;1.8;;;1.1;;
49582;SDS011;36329;48.816;44.624;2023-11-21T05:35:26;2.1;;;1.4;;
49582;SDS011;36329;48.816;44.624;2023-11-21T05:38:28;1.5;;;1.1;;
49582;SDS011;36329;48.816;44.624;2023-11-21T05:41:30;2.7;;;1.4;;
49582;SDS011;36329;48.816;44.624;2023-11-21T05:44:32;3.7;;;1.7;;
49582;SDS011;36329;48.816;44.624;2023-11-21T05:47:34;2.6;;;1.8;;
49582;SDS011;36329;48.816;44.624;2023-11-21T05:50:35;3.1;;;1.9;;
49582;SDS011;36329;48.816;44.624;2023-11-21T05:53:38;2.3;;;1.8;;
49582;SDS011;36329;48.816;44.624;2023-11-21T05:56:40;2.6;;;1.9;;
49582;SDS011;36329;48.816;44.624;2023-11-21T05:59:43;2.1;;;1.7;;
49582;SDS011;36329;48.816;44.624;2023-11-21T06:02:45;2.2;;;1.6;;
49582;SDS011;36329;48.816;44.624;2023-11-21T06:05:47;2.3;;;1.7;;
49582;SDS011;36329;48.816;44.624;2023-11-21T06:08:49;2.2;;;1.7;;
49582;SDS011;36329;48.816;44.624;2023-11-21T06:11:51;2.9;;;2.2;;
49582;SDS011;36329;48.816;44.624;2023-11-21T06:14:53;3.6;;;2.1;;
49582;SDS011;36329;48.816;44.624;2023-11-21T06:17:55;3.6;;;2.2;;
49582;SDS011;36329;48.816;44.624;2023-11-21T06:20:56;3.8;;;2.5;;
49582;SDS011;36329;48.816;44.624;2023-11-21T06:23:58;3.8;;;2.6;;
49582;SDS011;36329;48.816;44.624;2023-11-21T06:27:01;4.1;;;2.7;;
49582;SDS011;36329;48.816;44.624;2023-11-21T06:30:05;4.9;;;2.8;;
49582;SDS011;36329;48.816;44.624;2023-11-21T06:33:08;5;;;2.9;;
49582;SDS011;36329;48.816;44.624;2023-11-21T06:36:10;4.2;;;2.6;;
49582;SDS011;36329;48.816;44.624;2023-11-21T06:39:12;5.1;;;2.7;;
49582;SDS011;36329;48.816;44.624;2023-11-21T06:42:14;6;;;2.8;;
49582;SDS011;36329;48.816;44.624;2023-11-21T06:45:16;4.2;;;2.7;;
49582;SDS011;36329;48.816;44.624;2023-11-21T06:48:18;4.9;;;2.9;;
49582;SDS011;36329;48.816;44.624;2023-11-21T06:51:20;5.9;;;3.3;;
49582;SDS011;36329;48.816;44.624;2023-11-21T06:54:22;5;;;2.8;;
49582;SDS011;36329;48.816;44.624;2023-11-21T06:57:24;5.2;;;3.2;;
49582;SDS011;36329;48.816;44.624;2023-11-21T07:00:26;3.9;;;2.8;;
49582;SDS011;36329;48.816;44.624;2023-11-21T07:03:28;3.8;;;2.6;;
49582;SDS011;36329;48.816;44.624;2023-11-21T07:06:30;3.9;;;2.5;;
49582;SDS011;36329;48.816;44.624;2023-11-21T07:09:32;3;;;2.2;;
49582;SDS011;36329;48.816;44.624;2023-11-21T07:12:34;3.2;;;2.4;;
49582;SDS011;36329;48.816;44.624;2023-11-21T07:15:36;9;;;4.8;;
49582;SDS011;36329;48.816;44.624;2023-11-21T07:18:38;10.1;;;5.8;;
49582;SDS011;36329;48.816;44.624;2023-11-21T07:21:40;9.4;;;5.6;;
49582;SDS011;36329;48.816;44.624;2023-11-21T07:24:43;10.3;;;6.3;;
49582;SDS011;36329;48.816;44.624;2023-11-21T07:27:45;8.9;;;5;;
49582;SDS011;36329;48.816;44.624;2023-11-21T07:30:47;4.7;;;2.8;;
49582;SDS011;36329;48.816;44.624;2023-11-21T07:33:49;3.5;;;1.9;;
49582;SDS011;36329;48.816;44.624;2023-11-21T07:36:51;4;;;2;;
49582;SDS011;36329;48.816;44.624;2023-11-21T07:39:53;4.2;;;1.8;;
49582;SDS011;36329;48.816;44.624;2023-11-21T07:42:55;3.8;;;2;;
49582;SDS011;36329;48.816;44.624;2023-11-21T07:45:57;4.1;;;2;;
49582;SDS011;36329;48.816;44.624;2023-11-21T07:48:59;5.9;;;2.2;;
49582;SDS011;36329;48.816;44.624;2023-11-21T07:52:01;4.1;;;1.5;;
49582;SDS011;36329;48.816;44.624;2023-11-21T07:55:03;3;;;1.5;;
49582;SDS011;36329;48.816;44.624;2023-11-21T07:58:06;2.9;;;1.4;;
49582;SDS011;36329;48.816;44.624;2023-11-21T08:01:08;1.9;;;1.6;;
49582;SDS011;36329;48.816;44.624;2023-11-21T08:04:10;2.7;;;1.6;;
49582;SDS011;36329;48.816;44.624;2023-11-21T08:07:12;2.3;;;1.4;;
49582;SDS011;36329;48.816;44.624;2023-11-21T08:10:14;2;;;1.2;;
49582;SDS011;36329;48.816;44.624;2023-11-21T08:13:16;2.4;;;1.4;;
49582;SDS011;36329;48.816;44.624;2023-11-21T08:16:18;1.9;;;1.4;;
49582;SDS011;36329;48.816;44.624;2023-11-21T08:19:20;1.8;;;1.4;;
49582;SDS011;36329;48.816;44.624;2023-11-21T08:22:22;2.2;;;1.5;;
49582;SDS011;36329;48.816;44.624;2023-11-21T08:25:24;1.8;;;1.2;;
49582;SDS011;36329;48.816;44.624;2023-11-21T08:28:26;1.9;;;1.4;;
49582;SDS011;36329;48.816;44.624;2023-11-21T08:31:28;2.8;;;1;;
49582;SDS011;36329;48.816;44.624;2023-11-21T08:34:30;1.6;;;1.1;;
49582;SDS011;36329;48.816;44.624;2023-11-21T08:37:32;2.9;;;1.1;;
49582;SDS011;36329;48.816;44.624;2023-11-21T08:40:34;1.4;;;0.8;;
49582;SDS011;36329;48.816;44.624;2023-11-21T08:43:36;3.7;;;1.2;;
49582;SDS011;36329;48.816;44.624;2023-11-21T08:46:38;2.2;;;1;;
49582;SDS011;36329;48.816;44.624;2023-11-21T08:49:40;1.8;;;0.9;;
49582;SDS011;36329;48.816;44.624;2023-11-21T08:52:43;1.2;;;0.7;;
49582;SDS011;36329;48.816;44.624;2023-11-21T08:55:46;3.3;;;1;;
49582;SDS011;36329;48.816;44.624;2023-11-21T08:58:48;1.5;;;0.6;;
49582;SDS011;36329;48.816;44.624;2023-11-21T09:01:50;1.4;;;0.6;;
49582;SDS011;36329;48.816;44.624;2023-11-21T09:04:52;1.1;;;0.7;;
49582;SDS011;36329;48.816;44.624;2023-11-21T09:07:54;3.5;;;0.6;;
49582;SDS011;36329;48.816;44.624;2023-11-21T09:10:56;3.7;;;0.6;;
49582;SDS011;36329;48.816;44.624;2023-11-21T09:13:58;2;;;0.7;;
49582;SDS011;36329;48.816;44.624;2023-11-21T09:17:00;5.6;;;0.9;;
49582;SDS011;36329;48.816;44.624;2023-11-21T09:20:03;2.4;;;0.6;;
49582;SDS011;36329;48.816;44.624;2023-11-21T09:23:07;2.7;;;0.7;;
49582;SDS011;36329;48.816;44.624;2023-11-21T09:26:08;4.2;;;0.7;;
49582;SDS011;36329;48.816;44.624;2023-11-21T09:29:10;1.1;;;0.7;;
49582;SDS011;36329;48.816;44.624;2023-11-21T09:32:12;0.7;;;0.3;;
49582;SDS011;36329;48.816;44.624;2023-11-21T09:35:14;2.6;;;0.8;;
49582;SDS011;36329;48.816;44.624;2023-11-21T09:38:16;1.3;;;0.6;;
49582;SDS011;36329;48.816;44.624;2023-11-21T09:41:19;1.4;;;0.5;;
49582;SDS011;36329;48.816;44.624;2023-11-21T09:44:27;1.4;;;0.7;;
49582;SDS011;36329;48.816;44.624;2023-11-21T09:47:35;2.1;;;0.5;;
49582;SDS011;36329;48.816;44.624;2023-11-21T09:50:41;1.6;;;0.5;;
49582;SDS011;36329;48.816;44.624;2023-11-21T09:53:43;1.1;;;0.5;;
49582;SDS011;36329;48.816;44.624;2023-11-21T09:56:48;1.9;;;0.6;;
49582;SDS011;36329;48.816;44.624;2023-11-21T09:59:50;1.5;;;0.7;;
49582;SDS011;36329;48.816;44.624;2023-11-21T10:02:53;1.3;;;0.7;;
49582;SDS011;36329;48.816;44.624;2023-11-21T10:05:57;3.3;;;1;;
49582;SDS011;36329;48.816;44.624;2023-11-21T10:09:00;5.2;;;1.5;;
49582;SDS011;36329;48.816;44.624;2023-11-21T10:12:03;6;;;1.5;;
49582;SDS011;36329;48.816;44.624;2023-11-21T10:15:07;2.5;;;1.3;;
49582;SDS011;36329;48.816;44.624;2023-11-21T10:18:09;3;;;1.3;;
49582;SDS011;36329;48.816;44.624;2023-11-21T10:21:12;4.7;;;1.5;;
49582;SDS011;36329;48.816;44.624;2023-11-21T10:24:14;3.4;;;1.6;;
49582;SDS011;36329;48.816;44.624;2023-11-21T10:27:16;6.2;;;2.1;;
49582;SDS011;36329;48.816;44.624;2023-11-21T10:30:18;5.4;;;2.1;;
49582;SDS011;36329;48.816;44.624;2023-11-21T10:33:26;5;;;1.8;;
49582;SDS011;36329;48.816;44.624;2023-11-21T10:36:29;4.2;;;2;;
49582;SDS011;36329;48.816;44.624;2023-11-21T10:39:32;4.1;;;2;;
49582;SDS011;36329;48.816;44.624;2023-11-21T10:42:34;3.6;;;1.7;;
49582;SDS011;36329;48.816;44.624;2023-11-21T10:45:36;4.5;;;1.8;;
49582;SDS011;36329;48.816;44.624;2023-11-21T10:48:39;6;;;2;;
49582;SDS011;36329;48.816;44.624;2023-11-21T10:51:43;5.5;;;2.4;;
49582;SDS011;36329;48.816;44.624;2023-11-21T10:54:45;5.1;;;2.1;;
49582;SDS011;36329;48.816;44.624;2023-11-21T10:57:48;3.9;;;1.9;;
49582;SDS011;36329;48.816;44.624;2023-11-21T11:00:52;3.2;;;2.1;;
49582;SDS011;36329;48.816;44.624;2023-11-21T11:03:54;4.1;;;2;;
49582;SDS011;36329;48.816;44.624;2023-11-21T11:06:57;8;;;2.2;;
49582;SDS011;36329;48.816;44.624;2023-11-21T11:10:03;5.8;;;2.3;;
49582;SDS011;36329;48.816;44.624;2023-11-21T11:13:07;4.6;;;2.3;;
49582;SDS011;36329;48.816;44.624;2023-11-21T11:16:10;8.5;;;2.5;;
49582;SDS011;36329;48.816;44.624;2023-11-21T11:19:13;3.6;;;2;;
49582;SDS011;36329;48.816;44.624;2023-11-21T11:22:19;5.4;;;2;;
49582;SDS011;36329;48.816;44.624;2023-11-21T11:25:37;5.3;;;2.2;;
49582;SDS011;36329;48.816;44.624;2023-11-21T11:28:52;4.5;;;2.6;;
49582;SDS011;36329;48.816;44.624;2023-11-21T11:32:05;6.8;;;2.3;;
49582;SDS011;36329;48.816;44.624;2023-11-21T11:35:17;6.8;;;2.5;;
49582;SDS011;36329;48.816;44.624;2023-11-21T11:38:24;4.2;;;2.2;;
49582;SDS011;36329;48.816;44.624;2023-11-21T11:41:33;2.8;;;1.7;;
49582;SDS011;36329;48.816;44.624;2023-11-21T11:47:56;3;;;1.9;;
49582;SDS011;36329;48.816;44.624;2023-11-21T11:51:02;3.4;;;2.1;;
49582;SDS011;36329;48.816;44.624;2023-11-21T11:54:05;4.8;;;2.5;;
49582;SDS011;36329;48.816;44.624;2023-11-21T11:57:08;5.5;;;2.5;;
49582;SDS011;36329;48.816;44.624;2023-11-21T12:00:13;4.5;;;2.1;;
49582;SDS011;36329;48.816;44.624;2023-11-21T12:03:16;4.2;;;2.6;;
49582;SDS011;36329;48.816;44.624;2023-11-21T12:06:18;4.3;;;2.8;;
49582;SDS011;36329;48.816;44.624;2023-11-21T12:09:20;6.2;;;3;;
49582;SDS011;36329;48.816;44.624;2023-11-21T12:12:25;5.2;;;3.3;;
49582;SDS011;36329;48.816;44.624;2023-11-21T12:15:28;4.4;;;2.6;;
49582;SDS011;36329;48.816;44.624;2023-11-21T12:18:30;4.2;;;2.7;;
49582;SDS011;36329;48.816;44.624;2023-11-21T12:21:32;6.2;;;2.9;;
49582;SDS011;36329;48.816;44.624;2023-11-21T12:24:34;5;;;3.2;;
49582;SDS011;36329;48.816;44.624;2023-11-21T12:27:36;4.2;;;2.9;;
49582;SDS011;36329;48.816;44.624;2023-11-21T12:30:38;5.3;;;3.3;;
49582;SDS011;36329;48.816;44.624;2023-11-21T12:33:40;5.1;;;3.1;;
49582;SDS011;36329;48.816;44.624;2023-11-21T12:36:42;6.2;;;3.2;;
49582;SDS011;36329;48.816;44.624;2023-11-21T12:39:44;6;;;3.2;;
49582;SDS011;36329;48.816;44.624;2023-11-21T12:42:46;7.2;;;3.3;;
49582;SDS011;36329;48.816;44.624;2023-11-21T12:45:49;6.3;;;3.2;;
49582;SDS011;36329;48.816;44.624;2023-11-21T12:48:51;5.5;;;3.3;;
49582;SDS011;36329;48.816;44.624;2023-11-21T12:51:53;6.5;;;3.3;;
49582;SDS011;36329;48.816;44.624;2023-11-21T12:54:55;5.8;;;3;;
49582;SDS011;36329;48.816;44.624;2023-11-21T12:57:57;5;;;3.2;;
49582;SDS011;36329;48.816;44.624;2023-11-21T13:01:02;4.5;;;2.9;;
49582;SDS011;36329;48.816;44.624;2023-11-21T13:04:04;4;;;2.7;;
49582;SDS011;36329;48.816;44.624;2023-11-21T13:07:10;5;;;3.2;;
49582;SDS011;36329;48.816;44.624;2023-11-21T13:10:11;6.4;;;3.3;;
49582;SDS011;36329;48.816;44.624;2023-11-21T13:13:13;7.7;;;3.5;;
49582;SDS011;36329;48.816;44.624;2023-11-21T13:16:16;6;;;3.4;;
49582;SDS011;36329;48.816;44.624;2023-11-21T13:19:17;6.2;;;3.4;;
49582;SDS011;36329;48.816;44.624;2023-11-21T13:22:20;6.9;;;3.6;;
49582;SDS011;36329;48.816;44.624;2023-11-21T13:25:21;6.6;;;3.3;;
49582;SDS011;36329;48.816;44.624;2023-11-21T13:28:23;6.2;;;3.5;;
49582;SDS011;36329;48.816;44.624;2023-11-21T13:31:25;5.1;;;3.3;;
49582;SDS011;36329;48.816;44.624;2023-11-21T13:34:27;8.4;;;3.8;;
49582;SDS011;36329;48.816;44.624;2023-11-21T13:37:29;8;;;4.3;;
49582;SDS011;36329;48.816;44.624;2023-11-21T13:40:31;7.6;;;4.1;;
49582;SDS011;36329;48.816;44.624;2023-11-21T13:43:34;7.4;;;4;;
49582;SDS011;36329;48.816;44.624;2023-11-21T13:46:36;9.3;;;4.3;;
49582;SDS011;36329;48.816;44.624;2023-11-21T13:49:38;8.2;;;4;;
49582;SDS011;36329;48.816;44.624;2023-11-21T13:52:40;7.4;;;4;;
49582;SDS011;36329;48.816;44.624;2023-11-21T13:55:42;7.2;;;4.6;;
49582;SDS011;36329;48.816;44.624;2023-11-21T13:58:45;7.7;;;4.7;;
49582;SDS011;36329;48.816;44.624;2023-11-21T14:01:47;7.3;;;4.5;;
49582;SDS011;36329;48.816;44.624;2023-11-21T14:04:49;7;;;4.3;;
49582;SDS011;36329;48.816;44.624;2023-11-21T14:07:51;9;;;4.8;;
49582;SDS011;36329;48.816;44.624;2023-11-21T14:10:53;8.9;;;5;;
49582;SDS011;36329;48.816;44.624;2023-11-21T14:13:55;8.4;;;4.3;;
49582;SDS011;36329;48.816;44.624;2023-11-21T14:16:57;7.6;;;4.1;;
49582;SDS011;36329;48.816;44.624;2023-11-21T14:19:59;8.3;;;4.3;;
49582;SDS011;36329;48.816;44.624;2023-11-21T14:23:01;7.3;;;4.1;;
49582;SDS011;36329;48.816;44.624;2023-11-21T14:26:03;8;;;4.3;;
49582;SDS011;36329;48.816;44.624;2023-11-21T14:29:05;8.5;;;4.5;;
49582;SDS011;36329;48.816;44.624;2023-11-21T14:32:07;5.7;;;3.7;;
49582;SDS011;36329;48.816;44.624;2023-11-21T14:35:09;6.6;;;4.2;;
49582;SDS011;36329;48.816;44.624;2023-11-21T14:38:11;7.8;;;4.2;;
49582;SDS011;36329;48.816;44.624;2023-11-21T14:41:13;7;;;4.4;;
49582;SDS011;36329;48.816;44.624;2023-11-21T14:44:15;8.9;;;4.4;;
49582;SDS011;36329;48.816;44.624;2023-11-21T14:47:17;6.6;;;4.3;;
49582;SDS011;36329;48.816;44.624;2023-11-21T14:50:19;7.4;;;4.4;;
49582;SDS011;36329;48.816;44.624;2023-11-21T14:53:21;9.1;;;4.7;;
49582;SDS011;36329;48.816;44.624;2023-11-21T14:56:23;7.1;;;4.5;;
49582;SDS011;36329;48.816;44.624;2023-11-21T14:59:25;8.7;;;4.4;;
49582;SDS011;36329;48.816;44.624;2023-11-21T15:02:27;6.9;;;4.3;;
49582;SDS011;36329;48.816;44.624;2023-11-21T15:05:29;7.8;;;4.7;;
49582;SDS011;36329;48.816;44.624;2023-11-21T15:08:31;7.3;;;4.5;;
49582;SDS011;36329;48.816;44.624;2023-11-21T15:11:34;8.1;;;5.2;;
49582;SDS011;36329;48.816;44.624;2023-11-21T15:14:36;8.1;;;5;;
49582;SDS011;36329;48.816;44.624;2023-11-21T15:17:40;7.4;;;4.7;;
49582;SDS011;36329;48.816;44.624;2023-11-21T15:20:42;8.5;;;5;;
49582;SDS011;36329;48.816;44.624;2023-11-21T15:23:44;8.3;;;5.2;;
49582;SDS011;36329;48.816;44.624;2023-11-21T15:26:46;8.4;;;4.8;;
49582;SDS011;36329;48.816;44.624;2023-11-21T15:29:48;7.8;;;5.1;;
49582;SDS011;36329;48.816;44.624;2023-11-21T15:32:50;10;;;5.2;;
49582;SDS011;36329;48.816;44.624;2023-11-21T15:35:52;8;;;4.9;;
49582;SDS011;36329;48.816;44.624;2023-11-21T15:38:54;8.4;;;5.2;;
49582;SDS011;36329;48.816;44.624;2023-11-21T15:41:56;8.7;;;5.5;;
49582;SDS011;36329;48.816;44.624;2023-11-21T15:44:59;7.8;;;4.9;;
49582;SDS011;36329;48.816;44.624;2023-11-21T15:48:01;8.8;;;5.2;;
49582;SDS011;36329;48.816;44.624;2023-11-21T15:51:03;8.4;;;5.1;;
49582;SDS011;36329;48.816;44.624;2023-11-21T15:54:05;8.1;;;5.1;;
49582;SDS011;36329;48.816;44.624;2023-11-21T15:57:07;9.3;;;5.7;;
49582;SDS011;36329;48.816;44.624;2023-11-21T16:00:10;9.1;;;5.4;;
49582;SDS011;36329;48.816;44.624;2023-11-21T16:03:12;10.5;;;5.6;;
49582;SDS011;36329;48.816;44.624;2023-11-21T16:06:14;10.6;;;6.4;;
49582;SDS011;36329;48.816;44.624;2023-11-21T16:09:16;10.8;;;6.4;;
49582;SDS011;36329;48.816;44.624;2023-11-21T16:12:18;11.3;;;6.5;;
49582;SDS011;36329;48.816;44.624;2023-11-21T16:15:20;10.9;;;6.4;;
49582;SDS011;36329;48.816;44.624;2023-11-21T16:18:22;15.5;;;6.7;;
49582;SDS011;36329;48.816;44.624;2023-11-21T16:21:24;11.8;;;6.7;;
49582;SDS011;36329;48.816;44.624;2023-11-21T16:24:26;10.9;;;6.1;;
49582;SDS011;36329;48.816;44.624;2023-11-21T16:27:28;10.9;;;6.4;;
49582;SDS011;36329;48.816;44.624;2023-11-21T16:30:30;14.4;;;6.9;;
49582;SDS011;36329;48.816;44.624;2023-11-21T16:33:32;12;;;6.6;;
49582;SDS011;36329;48.816;44.624;2023-11-21T16:36:34;11;;;6;;
49582;SDS011;36329;48.816;44.624;2023-11-21T16:39:36;11.6;;;6.8;;
49582;SDS011;36329;48.816;44.624;2023-11-21T16:42:38;11.2;;;6.3;;
49582;SDS011;36329;48.816;44.624;2023-11-21T16:45:40;9;;;5.8;;
49582;SDS011;36329;48.816;44.624;2023-11-21T16:48:42;10.6;;;6;;
49582;SDS011;36329;48.816;44.624;2023-11-21T16:51:44;11.7;;;6.1;;
49582;SDS011;36329;48.816;44.624;2023-11-21T16:54:46;11.8;;;6.3;;
49582;SDS011;36329;48.816;44.624;2023-11-21T16:57:48;10.2;;;6.3;;
49582;SDS011;36329;48.816;44.624;2023-11-21T17:00:50;11.6;;;6.5;;
49582;SDS011;36329;48.816;44.624;2023-11-21T17:03:52;9.4;;;5.8;;
49582;SDS011;36329;48.816;44.624;2023-11-21T17:06:54;9.5;;;6;;
49582;SDS011;36329;48.816;44.624;2023-11-21T17:09:56;10.3;;;5.8;;
49582;SDS011;36329;48.816;44.624;2023-11-21T17:12:58;9.9;;;5.8;;
49582;SDS011;36329;48.816;44.624;2023-11-21T17:16:00;9.3;;;5.7;;
49582;SDS011;36329;48.816;44.624;2023-11-21T17:19:02;8.9;;;5.7;;
49582;SDS011;36329;48.816;44.624;2023-11-21T17:22:05;11;;;5.7;;
49582;SDS011;36329;48.816;44.624;2023-11-21T17:25:07;7.7;;;5.1;;
49582;SDS011;36329;48.816;44.624;2023-11-21T17:28:10;7.8;;;4.9;;
49582;SDS011;36329;48.816;44.624;2023-11-21T17:31:12;8.2;;;4.9;;
49582;SDS011;36329;48.816;44.624;2023-11-21T17:34:14;7.7;;;4.3;;
49582;SDS011;36329;48.816;44.624;2023-11-21T17:37:16;7.4;;;4.8;;
49582;SDS011;36329;48.816;44.624;2023-11-21T17:40:18;6.4;;;4.5;;
49582;SDS011;36329;48.816;44.624;2023-11-21T17:43:20;7.6;;;4.4;;
49582;SDS011;36329;48.816;44.624;2023-11-21T17:46:23;7.7;;;4.9;;
49582;SDS011;36329;48.816;44.624;2023-11-21T17:49:25;8.7;;;4.6;;
49582;SDS011;36329;48.816;44.624;2023-11-21T17:52:27;7.1;;;4.6;;
49582;SDS011;36329;48.816;44.624;2023-11-21T17:55:30;7.9;;;4.7;;
49582;SDS011;36329;48.816;44.624;2023-11-21T17:58:32;7.9;;;4.4;;
49582;SDS011;36329;48.816;44.624;2023-11-21T18:01:36;8.2;;;4.7;;
49582;SDS011;36329;48.816;44.624;2023-11-21T18:04:38;6.6;;;4.2;;
49582;SDS011;36329;48.816;44.624;2023-11-21T18:07:40;7.6;;;4.5;;
49582;SDS011;36329;48.816;44.624;2023-11-21T18:10:42;9.1;;;5.1;;
49582;SDS011;36329;48.816;44.624;2023-11-21T18:13:44;9.2;;;4.6;;
49582;SDS011;36329;48.816;44.624;2023-11-21T18:16:46;6.8;;;4.5;;
49582;SDS011;36329;48.816;44.624;2023-11-21T18:19:48;9;;;5.2;;
49582;SDS011;36329;48.816;44.624;2023-11-21T18:22:50;8.7;;;5;;
49582;SDS011;36329;48.816;44.624;2023-11-21T18:25:52;8.1;;;5.2;;
49582;SDS011;36329;48.816;44.624;2023-11-21T18:28:54;7.7;;;4.5;;
49582;SDS011;36329;48.816;44.624;2023-11-21T18:31:56;7.5;;;4.6;;
49582;SDS011;36329;48.816;44.624;2023-11-21T18:34:58;9.7;;;4.9;;
49582;SDS011;36329;48.816;44.624;2023-11-21T18:38:00;8.4;;;4.8;;
49582;SDS011;36329;48.816;44.624;2023-11-21T18:41:02;10.9;;;5.7;;
49582;SDS011;36329;48.816;44.624;2023-11-21T18:44:04;11.7;;;5.5;;